Time;durP1;ratioP1;P1;durP2;ratioP2;P2;SDS_P1;SDS_P2;PMS_P1;PMS_P2;Temp;Humidity;BMP_temperature;BMP_pressure;BME280_temperature;BME280_humidity;BME280_pressure;Samples;Min_cycle;Max_cycle;Signal;HPM_P1;HPM_P2
2021/05/25 00:00:42;;;;;;;4.05;2.52;;;;;;;12.63;75.29;101296.48;1634927;86;21887;-48
2021/05/25 00:03:09;;;;;;;2.98;2.08;;;;;;;12.61;75.37;101295.70;1645877;85;21055;-48
2021/05/25 00:05:36;;;;;;;2.55;2.10;;;;;;;12.61;75.56;101296.17;1710900;82;21026;-50
2021/05/25 00:08:04;;;;;;;3.45;2.45;;;;;;;12.60;75.67;101301.13;1702655;82;21034;-47
2021/05/25 00:10:31;;;;;;;3.58;2.10;;;;;;;12.59;75.69;101298.92;1707028;82;21059;-51
2021/05/25 00:12:58;;;;;;;3.10;2.22;;;;;;;12.58;75.67;101297.21;1687955;82;21005;-42
2021/05/25 00:15:27;;;;;;;3.87;2.02;;;;;;;12.57;75.81;101300.81;1680532;83;21549;-43
2021/05/25 00:17:54;;;;;;;3.22;1.98;;;;;;;12.56;76.07;101300.44;1678860;83;22180;-45
2021/05/25 00:20:22;;;;;;;6.22;2.15;;;;;;;12.55;76.35;101298.72;1680301;83;21033;-47
2021/05/25 00:22:49;;;;;;;2.45;2.15;;;;;;;12.56;76.48;101301.77;1679693;83;21053;-47
2021/05/25 00:25:16;;;;;;;2.52;1.90;;;;;;;12.56;76.44;101299.09;1676984;83;21014;-45
2021/05/25 00:27:43;;;;;;;2.20;1.90;;;;;;;12.54;76.38;101295.16;1682400;83;21022;-43
2021/05/25 00:30:11;;;;;;;2.70;1.92;;;;;;;12.53;76.33;101299.27;1683202;83;21006;-44
2021/05/25 00:32:37;;;;;;;2.47;1.85;;;;;;;12.51;76.23;101302.50;1679608;83;21102;-45
2021/05/25 00:35:05;;;;;;;2.30;1.95;;;;;;;12.49;76.17;101299.03;1680586;83;21053;-48
2021/05/25 00:37:32;;;;;;;3.52;2.20;;;;;;;12.45;76.12;101299.68;1681039;83;21061;-47
2021/05/25 00:39:59;;;;;;;2.67;2.00;;;;;;;12.43;76.19;101295.36;1679013;83;21032;-44
2021/05/25 00:42:26;;;;;;;2.22;1.50;;;;;;;12.42;76.20;101301.64;1679397;83;21101;-46
2021/05/25 00:44:53;;;;;;;2.35;1.80;;;;;;;12.38;76.10;101307.63;1679024;83;21053;-47
2021/05/25 00:47:29;;;;;;;3.60;1.77;;;;;;;12.34;76.03;101308.25;1682592;83;21021;-46
2021/05/25 00:50:09;;;;;;;2.47;1.75;;;;;;;12.32;76.07;101305.27;1680321;83;21070;-46
2021/05/25 00:52:24;;;;;;;2.12;1.90;;;;;;;12.30;76.10;101305.84;1677781;83;21074;-50
2021/05/25 00:54:51;;;;;;;4.78;3.62;;;;;;;12.27;76.11;101308.66;1680900;83;21889;-50
2021/05/25 00:57:18;;;;;;;3.00;2.65;;;;;;;12.25;76.12;101312.77;1679699;83;21023;-51
2021/05/25 00:59:45;;;;;;;4.65;2.83;;;;;;;12.23;76.09;101313.31;1679166;83;21022;-53
2021/05/25 01:02:11;;;;;;;4.60;2.75;;;;;;;12.21;76.09;101310.33;1681773;83;21591;-49
2021/05/25 01:04:37;;;;;;;3.27;2.20;;;;;;;12.17;76.17;101307.41;1681342;83;21013;-54
2021/05/25 01:07:05;;;;;;;3.25;2.50;;;;;;;12.17;76.24;101313.65;1684321;83;21544;-50
2021/05/25 01:09:33;;;;;;;3.47;2.62;;;;;;;12.17;76.32;101316.77;1680235;83;21021;-52
2021/05/25 01:12:03;;;;;;;2.40;1.87;;;;;;;12.16;76.30;101319.06;1698171;82;21037;-50
2021/05/25 01:14:38;;;;;;;3.05;2.17;;;;;;;12.13;76.14;101318.75;1672754;83;21547;-52
2021/05/25 01:16:59;;;;;;;3.00;1.70;;;;;;;12.11;76.04;101316.14;1698487;82;21343;-51
2021/05/25 01:19:26;;;;;;;2.83;1.82;;;;;;;12.08;75.93;101314.97;1699283;82;21561;-54
2021/05/25 01:21:53;;;;;;;4.30;1.87;;;;;;;12.04;75.83;101309.86;1701023;82;20989;-55
2021/05/25 01:24:19;;;;;;;2.42;1.60;;;;;;;12.01;75.74;101311.36;1699303;82;20994;-53
2021/05/25 01:26:46;;;;;;;3.08;2.60;;;;;;;12.00;75.79;101308.31;1700485;82;21098;-56
2021/05/25 01:29:12;;;;;;;4.10;2.00;;;;;;;11.98;75.84;101308.37;1700753;82;21560;-55
2021/05/25 01:31:40;;;;;;;2.17;1.50;;;;;;;11.95;75.81;101309.02;1700678;82;21002;-53
2021/05/25 01:34:07;;;;;;;2.08;1.62;;;;;;;11.92;75.77;101306.03;1667712;84;21036;-57
2021/05/25 01:36:33;;;;;;;5.17;2.05;;;;;;;11.90;75.70;101313.25;1700691;82;21038;-53
2021/05/25 01:39:00;;;;;;;3.05;1.90;;;;;;;11.87;75.62;101311.60;1700241;82;21513;-49
2021/05/25 01:41:27;;;;;;;3.77;2.10;;;;;;;11.83;75.56;101314.47;1701813;82;21038;-48
2021/05/25 01:43:53;;;;;;;2.70;1.67;;;;;;;11.79;75.52;101313.77;1665675;84;21024;-47
2021/05/25 01:46:20;;;;;;;2.08;1.87;;;;;;;11.75;75.48;101317.53;1701971;82;21029;-46
2021/05/25 01:48:50;;;;;;;2.60;2.00;;;;;;;11.72;75.58;101319.47;1699983;83;21035;-45
2021/05/25 01:51:16;;;;;;;2.72;1.55;;;;;;;11.70;75.69;101316.42;1701613;82;21018;-45
2021/05/25 01:53:43;;;;;;;4.62;1.87;;;;;;;11.72;75.77;101315.47;1696270;82;21397;-45
2021/05/25 01:56:10;;;;;;;4.03;2.15;;;;;;;11.69;75.75;101313.36;1701493;82;21795;-44
2021/05/25 01:58:37;;;;;;;5.67;2.33;;;;;;;11.67;75.79;101321.06;1691304;82;21582;-47
2021/05/25 02:01:07;;;;;;;3.22;2.10;;;;;;;11.66;75.81;101313.97;1700645;82;21620;-48
2021/05/25 02:03:33;;;;;;;2.55;1.75;;;;;;;11.63;75.69;101317.66;1701871;83;20998;-49
2021/05/25 02:06:03;;;;;;;2.65;2.05;;;;;;;11.62;75.65;101319.09;1703714;82;21031;-49
2021/05/25 02:08:32;;;;;;;1.67;1.43;;;;;;;11.59;75.70;101316.10;1699583;82;20990;-46
2021/05/25 02:11:01;;;;;;;2.25;1.75;;;;;;;11.58;75.81;101317.50;1704888;82;21090;-46
2021/05/25 02:13:40;;;;;;;4.22;2.55;;;;;;;11.60;75.92;101323.64;1701996;82;21050;-46
2021/05/25 02:16:15;;;;;;;6.77;5.83;;;;;;;11.58;76.01;101319.70;1705858;82;21060;-50
2021/05/25 02:18:47;;;;;;;;;;;;;;;11.58;76.13;101319.70;1709856;82;22121;-49
2021/05/25 02:21:20;;;;;;;2.37;1.95;;;;;;;11.59;76.22;101317.44;1703709;82;20152;-46
2021/05/25 02:23:48;;;;;;;2.30;2.05;;;;;;;11.57;76.24;101322.46;1708017;82;21015;-56
2021/05/25 02:26:14;;;;;;;4.17;2.45;;;;;;;11.56;76.37;101327.39;1643010;85;21032;-49
2021/05/25 02:28:42;;;;;;;3.50;1.95;;;;;;;11.54;76.46;101329.27;1703077;82;21026;-49
2021/05/25 02:31:09;;;;;;;3.60;2.98;;;;;;;11.55;76.55;101329.68;1702789;82;21046;-48
2021/05/25 02:33:35;;;;;;;4.67;3.42;;;;;;;11.55;76.67;101325.20;1705807;82;21026;-47
2021/05/25 02:38:42;;;;;;;4.75;3.77;;;;;;;11.62;77.18;101317.75;1894610;74;23007;-55
2021/05/25 02:41:09;;;;;;;11.73;9.80;;;;;;;11.58;77.25;101320.17;1864127;75;20977;-53
2021/05/25 02:43:35;;;;;;;8.83;7.85;;;;;;;11.61;77.46;101320.02;1861551;75;21007;-47
2021/05/25 02:46:02;;;;;;;8.88;7.97;;;;;;;11.63;77.60;101321.67;1873857;75;21013;-56
2021/05/25 02:48:28;;;;;;;5.55;4.08;;;;;;;11.66;77.75;101324.66;1859054;75;20987;-54
2021/05/25 02:50:55;;;;;;;4.87;3.08;;;;;;;11.67;77.88;101331.27;1865766;75;20957;-54
2021/05/25 02:53:23;;;;;;;3.60;2.42;;;;;;;11.68;78.10;101328.98;1867115;75;20977;-50
2021/05/25 02:55:50;;;;;;;4.12;2.45;;;;;;;11.71;78.48;101333.31;1864733;75;21417;-53
2021/05/25 02:58:17;;;;;;;3.08;2.27;;;;;;;11.74;78.70;101334.48;1863600;75;20996;-51
2021/05/25 03:00:45;;;;;;;4.20;2.20;;;;;;;11.78;78.98;101337.89;1856724;75;21112;-47
2021/05/25 03:03:12;;;;;;;2.30;1.92;;;;;;;11.79;79.19;101340.49;1828002;77;21551;-49
2021/05/25 03:05:41;;;;;;;3.50;2.00;;;;;;;11.81;79.37;101343.92;1841863;77;20965;-45
2021/05/25 03:08:09;;;;;;;3.70;2.50;;;;;;;11.85;79.58;101348.67;1845088;76;22110;-51
2021/05/25 03:10:40;;;;;;;4.55;2.52;;;;;;;11.85;79.80;101345.52;1847210;76;21479;-49
2021/05/25 03:13:07;;;;;;;2.60;1.98;;;;;;;11.89;79.96;101348.92;1836387;76;21570;-53
2021/05/25 03:15:36;;;;;;;7.28;2.98;;;;;;;11.93;80.18;101354.52;1845063;76;20994;-45
2021/05/25 03:18:04;;;;;;;;;;;;;;;11.94;80.42;101350.89;1845702;76;20987;-46
2021/05/25 03:20:31;;;;;;;3.77;2.20;;;;;;;11.97;80.65;101346.75;1844989;76;20158;-45
2021/05/25 03:22:58;;;;;;;2.67;1.85;;;;;;;12.00;80.88;101345.73;1826908;75;21532;-45
2021/05/25 03:25:24;;;;;;;2.80;2.30;;;;;;;12.01;81.18;101346.97;1849348;76;20993;-50
2021/05/25 03:27:51;;;;;;;4.60;2.45;;;;;;;12.06;81.44;101346.27;1843158;77;21012;-47
2021/05/25 03:30:21;;;;;;;3.40;2.10;;;;;;;12.10;81.69;101349.19;1837150;76;21523;-54
2021/05/25 03:32:47;;;;;;;3.77;2.42;;;;;;;12.14;81.95;101345.87;1844240;77;21001;-52
2021/05/25 03:35:16;;;;;;;5.60;2.37;;;;;;;12.19;82.21;101351.84;1851918;75;21095;-56
2021/05/25 03:37:43;;;;;;;2.83;2.30;;;;;;;12.23;82.43;101350.75;1857745;76;21063;-48
2021/05/25 03:40:11;;;;;;;4.50;2.55;;;;;;;12.27;82.64;101353.67;1838003;76;21009;-50
2021/05/25 03:42:37;;;;;;;3.65;2.45;;;;;;;12.33;82.77;101353.81;1854334;76;21351;-47
2021/05/25 03:45:06;;;;;;;4.05;2.37;;;;;;;12.40;82.75;101354.34;1839027;76;20953;-47
2021/05/25 03:47:33;;;;;;;6.00;2.22;;;;;;;12.46;82.71;101361.58;1852709;77;21008;-47
2021/05/25 03:50:07;;;;;;;7.15;2.17;;;;;;;12.52;82.73;101360.39;1833378;77;20984;-45
2021/05/25 03:52:36;;;;;;;7.35;3.02;;;;;;;12.55;82.62;101356.23;1846602;76;21504;-53
2021/05/25 03:55:11;;;;;;;7.10;5.90;;;;;;;12.61;82.53;101353.22;1850441;76;22079;-48
2021/05/25 04:00:06;;;;;;;6.22;3.22;;;;;;;12.75;82.58;101352.02;1830875;77;21396;-48
2021/05/25 04:02:32;;;;;;;2.30;1.90;;;;;;;12.82;82.31;101347.18;1837266;76;21417;-45
2021/05/25 04:04:59;;;;;;;7.22;2.75;;;;;;;12.89;82.18;101346.39;1837787;77;21005;-46
2021/05/25 04:07:25;;;;;;;4.05;1.70;;;;;;;12.96;82.10;101349.13;1815531;77;21036;-45
2021/05/25 04:09:52;;;;;;;4.08;2.37;;;;;;;13.05;81.89;101342.38;1833115;77;21063;-46
2021/05/25 04:12:20;;;;;;;2.70;2.10;;;;;;;13.13;81.71;101342.36;1833067;77;20979;-46
2021/05/25 04:14:48;;;;;;;4.60;2.80;;;;;;;13.21;81.33;101339.26;1832782;77;20989;-53
2021/05/25 04:17:16;;;;;;;3.65;2.25;;;;;;;13.28;80.87;101333.98;1847082;77;20991;-55
2021/05/25 04:19:43;;;;;;;3.65;2.33;;;;;;;13.36;80.65;101338.42;1845067;76;20993;-48
2021/05/25 04:22:09;;;;;;;4.40;2.27;;;;;;;13.47;80.55;101344.98;1849511;77;21016;-50
2021/05/25 04:24:36;;;;;;;5.22;2.42;;;;;;;13.54;80.64;101343.69;1855064;75;21028;-52
2021/05/25 04:27:03;;;;;;;2.58;2.35;;;;;;;13.62;80.67;101344.11;1850448;77;21397;-55
2021/05/25 04:29:29;;;;;;;4.83;2.20;;;;;;;13.69;80.70;101340.12;1847944;77;21397;-47
2021/05/25 04:31:57;;;;;;;4.62;2.17;;;;;;;13.77;80.84;101338.33;1854292;76;20949;-46
2021/05/25 04:34:23;;;;;;;3.02;2.58;;;;;;;13.83;80.81;101342.88;1845782;77;21091;-42
2021/05/25 04:36:50;;;;;;;3.17;2.20;;;;;;;13.90;80.60;101337.99;1850438;76;21476;-45
2021/05/25 04:39:16;;;;;;;4.17;2.22;;;;;;;13.96;80.53;101338.98;1849501;76;21001;-48
2021/05/25 04:41:43;;;;;;;3.70;2.17;;;;;;;14.04;80.57;101339.39;1847307;76;20980;-44
2021/05/25 04:44:09;;;;;;;5.08;1.80;;;;;;;14.10;80.34;101338.64;1849050;76;20978;-46
2021/05/25 04:46:36;;;;;;;2.50;2.02;;;;;;;14.15;80.02;101334.72;1839220;76;20989;-43
2021/05/25 04:49:03;;;;;;;4.92;2.27;;;;;;;14.22;80.16;101332.05;1851892;75;21507;-48
2021/05/25 04:51:29;;;;;;;3.50;1.80;;;;;;;14.29;80.26;101332.56;1847649;76;21024;-47
2021/05/25 04:53:56;;;;;;;6.03;2.08;;;;;;;14.37;80.17;101328.06;1857118;76;21027;-48
2021/05/25 04:56:23;;;;;;;4.75;2.00;;;;;;;14.44;79.86;101329.42;1846297;77;21012;-49
2021/05/25 04:58:49;;;;;;;5.00;2.25;;;;;;;14.50;79.07;101323.18;1850137;76;20996;-48
2021/05/25 05:01:16;;;;;;;2.83;1.98;;;;;;;14.57;78.66;101321.51;1828964;76;21094;-48
2021/05/25 05:03:42;;;;;;;3.12;1.80;;;;;;;14.63;78.50;101326.48;1850899;76;21032;-47
2021/05/25 05:06:09;;;;;;;3.62;2.08;;;;;;;14.71;78.78;101324.17;1841797;76;20985;-50
2021/05/25 05:08:36;;;;;;;4.58;1.77;;;;;;;14.76;78.67;101314.01;1849785;76;21048;-49
2021/05/25 05:11:03;;;;;;;4.12;2.08;;;;;;;14.83;78.67;101306.44;1830103;77;21526;-51
2021/05/25 05:13:30;;;;;;;2.55;2.10;;;;;;;14.89;78.18;101294.84;1842187;76;21054;-62
2021/05/25 05:15:56;;;;;;;2.00;1.70;;;;;;;14.98;77.93;101289.34;1828516;76;21027;-52
2021/05/25 05:18:23;;;;;;;5.08;1.52;;;;;;;15.08;78.19;101301.22;1825990;76;20955;-55
2021/05/25 05:20:51;;;;;;;4.50;1.50;;;;;;;15.17;77.78;101304.27;1839142;77;21015;-48
2021/05/25 05:23:17;;;;;;;3.70;1.10;;;;;;;15.24;76.74;101304.26;1833039;77;20981;-47
2021/05/25 05:25:44;;;;;;;4.08;1.52;;;;;;;15.31;74.91;101297.52;1843029;76;21666;-47
2021/05/25 05:28:10;;;;;;;2.42;1.17;;;;;;;15.39;73.88;101295.67;1852972;76;20988;-52
2021/05/25 05:30:37;;;;;;;3.52;1.40;;;;;;;15.47;73.37;101293.34;1845219;76;21008;-56
2021/05/25 05:33:06;;;;;;;3.95;1.92;;;;;;;15.54;72.90;101293.31;1848919;76;20981;-55
2021/05/25 05:35:33;;;;;;;1.95;1.17;;;;;;;15.62;72.82;101299.52;1843303;76;20995;-55
2021/05/25 05:37:59;;;;;;;2.52;1.92;;;;;;;15.68;72.43;101299.98;1830002;77;21024;-51
2021/05/25 05:40:26;;;;;;;2.12;1.50;;;;;;;15.77;72.37;101302.09;1836480;76;20951;-51
2021/05/25 05:42:53;;;;;;;1.98;1.50;;;;;;;15.85;71.94;101298.00;1845838;76;21063;-50
2021/05/25 05:45:21;;;;;;;2.12;1.75;;;;;;;15.91;72.08;101297.61;1829238;76;21040;-56
2021/05/25 05:47:48;;;;;;;2.87;1.75;;;;;;;15.95;71.36;101297.30;1749960;79;21586;-47
2021/05/25 05:50:15;;;;;;;2.42;1.85;;;;;;;16.02;71.16;101301.75;1773819;79;21005;-49
2021/05/25 05:52:41;;;;;;;3.92;1.65;;;;;;;16.07;71.46;101292.02;1790792;78;21067;-46
2021/05/25 05:55:11;;;;;;;2.67;1.55;;;;;;;16.14;72.09;101295.53;1761402;79;21554;-50
2021/05/25 05:57:38;;;;;;;3.10;1.40;;;;;;;16.20;71.36;101293.78;1786832;78;21512;-46
2021/05/25 06:00:07;;;;;;;3.20;1.40;;;;;;;16.27;70.29;101290.16;1788922;78;21232;-48
2021/05/25 06:02:35;;;;;;;1.98;1.27;;;;;;;16.32;69.73;101279.94;1755845;80;21085;-46
2021/05/25 06:05:02;;;;;;;2.40;1.25;;;;;;;16.40;68.68;101285.66;1786045;78;21013;-44
2021/05/25 06:07:29;;;;;;;2.87;1.42;;;;;;;16.45;68.00;101278.58;1812558;78;21005;-50
2021/05/25 06:09:58;;;;;;;4.25;1.70;;;;;;;16.52;68.37;101272.29;1772368;79;21076;-43
2021/05/25 06:12:25;;;;;;;3.40;1.77;;;;;;;16.58;68.41;101275.42;1774773;79;21023;-45
2021/05/25 06:14:52;;;;;;;4.33;2.00;;;;;;;16.64;68.45;101272.77;1779329;79;20998;-52
2021/05/25 06:17:19;;;;;;;3.40;2.17;;;;;;;16.71;68.58;101272.70;1757371;80;20976;-49
2021/05/25 06:19:46;;;;;;;2.62;1.72;;;;;;;16.77;68.79;101274.94;1790901;78;20988;-46
2021/05/25 06:22:13;;;;;;;2.15;1.55;;;;;;;16.83;68.49;101269.16;1778085;80;21044;-47
2021/05/25 06:24:40;;;;;;;3.12;1.30;;;;;;;16.90;67.64;101267.36;1805693;77;20977;-49
2021/05/25 06:27:07;;;;;;;1.57;0.90;;;;;;;16.93;66.13;101257.20;1761159;80;21042;-46
2021/05/25 06:29:37;;;;;;;2.08;0.90;;;;;;;17.00;65.15;101258.48;1760986;80;21535;-45
2021/05/25 06:32:05;;;;;;;1.52;1.02;;;;;;;17.06;62.82;101249.12;1779394;79;21104;-46
2021/05/25 06:34:32;;;;;;;2.58;1.00;;;;;;;17.12;61.51;101250.49;1794383;78;21071;-47
2021/05/25 06:36:58;;;;;;;0.93;0.57;;;;;;;17.18;61.04;101245.98;1794248;78;21035;-47
2021/05/25 06:39:25;;;;;;;1.40;0.70;;;;;;;17.25;61.20;101241.86;1798889;78;21012;-48
2021/05/25 06:41:52;;;;;;;0.98;0.80;;;;;;;17.29;59.51;101236.13;1800038;77;21005;-48
2021/05/25 06:44:19;;;;;;;1.90;0.85;;;;;;;17.36;58.99;101231.61;1808001;77;20993;-48
2021/05/25 06:46:46;;;;;;;1.87;0.93;;;;;;;17.40;58.92;101235.31;1796873;78;20976;-53
2021/05/25 06:49:13;;;;;;;1.92;1.25;;;;;;;17.44;58.37;101239.52;1809232;77;21013;-54
2021/05/25 06:51:40;;;;;;;3.80;1.25;;;;;;;17.49;59.40;101245.42;1802810;77;21056;-48
2021/05/25 06:54:07;;;;;;;5.22;1.40;;;;;;;17.51;59.49;101244.82;1786374;79;21930;-51
2021/05/25 06:56:35;;;;;;;1.65;0.80;;;;;;;17.55;59.11;101244.08;1783847;79;21010;-49
2021/05/25 06:59:01;;;;;;;2.10;1.50;;;;;;;17.59;59.39;101245.58;1775389;79;21178;-48
2021/05/25 07:01:28;;;;;;;2.58;0.95;;;;;;;17.63;59.05;101238.95;1785553;79;21049;-50
2021/05/25 07:03:55;;;;;;;4.30;1.10;;;;;;;17.68;58.15;101246.70;1767481;79;21606;-50
2021/05/25 07:06:23;;;;;;;1.72;0.90;;;;;;;17.72;58.02;101243.66;1781659;78;21099;-49
2021/05/25 07:08:51;;;;;;;1.98;0.90;;;;;;;17.78;58.95;101240.12;1775374;78;21012;-49
2021/05/25 07:11:17;;;;;;;1.50;0.80;;;;;;;17.85;59.32;101245.45;1757294;79;21052;-49
2021/05/25 07:13:45;;;;;;;2.22;0.80;;;;;;;17.90;58.17;101236.52;1797376;79;21520;-49
2021/05/25 07:16:13;;;;;;;1.12;0.78;;;;;;;17.97;58.94;101240.92;1794178;78;20967;-45
2021/05/25 07:18:41;;;;;;;1.00;0.78;;;;;;;18.02;59.36;101242.31;1796481;78;21516;-49
2021/05/25 07:21:08;;;;;;;1.47;0.78;;;;;;;18.08;58.97;101236.42;1771072;78;21566;-46
2021/05/25 07:23:35;;;;;;;2.33;0.60;;;;;;;18.15;58.16;101236.31;1779782;78;21005;-51
2021/05/25 07:26:03;;;;;;;1.47;1.10;;;;;;;18.21;58.22;101242.20;1766509;79;21039;-50
2021/05/25 07:28:29;;;;;;;1.10;0.90;;;;;;;18.26;58.35;101241.35;1780639;79;20993;-50
2021/05/25 07:30:56;;;;;;;1.57;0.75;;;;;;;18.30;58.30;101236.95;1772413;78;21083;-48
2021/05/25 07:33:24;;;;;;;2.70;1.02;;;;;;;18.37;58.38;101244.08;1770547;79;21004;-48
2021/05/25 07:35:51;;;;;;;1.32;0.78;;;;;;;18.45;58.92;101244.82;1754196;80;21013;-46
2021/05/25 07:38:17;;;;;;;1.90;1.20;;;;;;;18.51;57.64;101234.37;1767601;80;21058;-47
2021/05/25 07:40:44;;;;;;;2.25;1.10;;;;;;;18.57;57.60;101240.64;1796592;78;21048;-46
2021/05/25 07:43:11;;;;;;;1.25;1.10;;;;;;;18.65;58.42;101233.27;1794876;78;21019;-48
2021/05/25 07:45:38;;;;;;;2.25;0.65;;;;;;;18.72;58.26;101244.42;1806155;77;21513;-54
2021/05/25 07:48:05;;;;;;;2.60;0.85;;;;;;;18.78;57.65;101241.27;1759396;80;21004;-44
2021/05/25 07:50:32;;;;;;;0.60;0.60;;;;;;;18.81;52.92;101228.86;1772764;78;21503;-44
2021/05/25 07:53:00;;;;;;;0.93;0.60;;;;;;;18.85;52.44;101226.75;1757316;78;21048;-47
2021/05/25 07:55:28;;;;;;;1.55;0.60;;;;;;;18.91;54.36;101226.27;1775228;79;21008;-50
2021/05/25 07:57:55;;;;;;;1.32;0.85;;;;;;;18.99;53.36;101234.59;1762730;79;21096;-45
2021/05/25 08:00:22;;;;;;;1.27;0.62;;;;;;;19.06;52.63;101226.36;1767950;79;21036;-44
2021/05/25 08:02:49;;;;;;;1.95;0.80;;;;;;;19.12;51.33;101223.13;1776452;79;21578;-48
2021/05/25 08:05:16;;;;;;;1.95;0.62;;;;;;;19.17;52.59;101211.44;1811417;77;21084;-53
2021/05/25 08:07:46;;;;;;;1.17;0.68;;;;;;;19.24;52.27;101214.50;1796174;78;21046;-48
2021/05/25 08:10:13;;;;;;;0.88;0.50;;;;;;;19.31;52.81;101217.06;1813160;78;21336;-46
2021/05/25 08:12:40;;;;;;;0.40;0.37;;;;;;;19.38;52.09;101218.77;1773698;78;21004;-49
2021/05/25 08:15:10;;;;;;;1.25;0.82;;;;;;;19.42;49.88;101212.95;1781678;79;20998;-52
2021/05/25 08:20:18;;;;;;;0.80;0.53;;;;;;;19.52;52.25;101210.33;1689057;82;21650;-50
2021/05/25 08:22:52;;;;;;;0.50;0.42;;;;;;;19.58;51.21;101219.30;1696103;83;21055;-54
2021/05/25 08:25:27;;;;;;;4.78;3.00;;;;;;;19.63;50.52;101214.81;1724719;81;21574;-50
2021/05/25 08:27:50;;;;;;;2.47;1.57;;;;;;;19.70;49.92;101208.43;1707850;82;21040;-49
2021/05/25 08:30:21;;;;;;;0.95;0.70;;;;;;;19.74;50.14;101210.75;1715820;82;21088;-48
2021/05/25 08:32:49;;;;;;;0.70;0.60;;;;;;;19.80;49.97;101204.80;1723744;82;21054;-52
2021/05/25 08:35:19;;;;;;;0.68;0.55;;;;;;;19.85;51.12;101196.28;1684477;83;21362;-54
2021/05/25 08:37:49;;;;;;;1.50;0.70;;;;;;;19.96;49.11;101196.70;1698851;82;21013;-54
2021/05/25 08:40:17;;;;;;;5.83;1.23;;;;;;;19.96;49.11;101196.70;1702538;83;21560;-48
2021/05/25 08:42:46;;;;;;;3.02;0.93;;;;;;;20.03;50.22;101197.89;1725503;81;21548;-48
2021/05/25 08:45:14;;;;;;;0.85;0.50;;;;;;;20.07;49.17;101195.28;1725967;82;21033;-49
2021/05/25 08:47:42;;;;;;;2.22;0.80;;;;;;;20.13;49.59;101200.15;1728810;81;21072;-46
2021/05/25 08:50:39;;;;;;;1.50;0.57;;;;;;;20.17;48.96;101198.91;1690975;81;21548;-49
2021/05/25 08:53:14;;;;;;;1.15;0.70;;;;;;;20.21;48.50;101187.29;1693500;82;21846;-44
2021/05/25 08:55:45;;;;;;;1.05;0.68;;;;;;;20.27;49.52;101186.27;1709432;82;21075;-50
2021/05/25 08:58:09;;;;;;;0.93;0.68;;;;;;;20.32;47.90;101184.00;1691450;83;21008;-46
2021/05/25 09:00:36;;;;;;;1.10;0.70;;;;;;;20.32;45.52;101177.73;1715943;81;21064;-46
2021/05/25 09:03:03;;;;;;;2.83;1.22;;;;;;;20.29;46.39;101185.64;1726180;81;21559;-44
2021/05/25 09:05:32;;;;;;;0.98;0.60;;;;;;;20.29;46.11;101180.73;1725636;81;21630;-49
2021/05/25 09:07:59;;;;;;;2.15;0.60;;;;;;;20.27;47.46;101178.14;1716358;81;21059;-47
2021/05/25 09:10:38;;;;;;;0.93;0.60;;;;;;;20.31;47.48;101171.98;1713981;81;21088;-44
2021/05/25 09:13:23;;;;;;;0.95;0.65;;;;;;;20.33;46.65;101165.91;1732336;81;21063;-48
2021/05/25 09:15:55;;;;;;;2.52;0.42;;;;;;;20.35;47.33;101170.69;1712028;81;21379;-46
2021/05/25 09:18:29;;;;;;;0.78;0.40;;;;;;;20.39;45.38;101166.73;1699960;81;22101;-47
2021/05/25 09:21:06;;;;;;;5.62;2.80;;;;;;;20.41;46.04;101179.64;1705393;81;21016;-48
2021/05/25 09:23:38;;;;;;;1.07;0.80;;;;;;;20.44;47.09;101184.77;1705263;82;21403;-54
2021/05/25 09:26:12;;;;;;;0.93;0.70;;;;;;;20.50;45.83;101177.95;1698476;81;21131;-43
2021/05/25 09:29:05;;;;;;;0.68;0.50;;;;;;;20.53;46.23;101172.25;1708891;81;21931;-43
2021/05/25 09:31:51;;;;;;;0.37;0.37;;;;;;;20.59;48.85;101178.52;1842576;76;21044;-45
2021/05/25 09:34:20;;;;;;;2.85;1.17;;;;;;;20.65;46.70;101174.39;1835772;77;21016;-55
2021/05/25 09:37:09;;;;;;;1.27;0.60;;;;;;;20.72;48.54;101172.34;1828030;76;21035;-54
2021/05/25 09:39:44;;;;;;;1.35;0.50;;;;;;;20.77;48.32;101170.58;1836019;76;20994;-56
2021/05/25 09:42:12;;;;;;;1.47;0.50;;;;;;;20.82;47.11;101160.68;1849324;76;21373;-57
2021/05/25 09:45:00;;;;;;;0.78;0.70;;;;;;;20.87;48.32;101168.74;1839352;76;21575;-53
2021/05/25 09:47:40;;;;;;;1.52;0.70;;;;;;;20.92;48.47;101162.40;1818148;77;21003;-56
2021/05/25 09:50:12;;;;;;;0.55;0.47;;;;;;;20.95;48.39;101160.75;1824864;76;21064;-56
2021/05/25 09:53:09;;;;;;;2.70;1.15;;;;;;;21.01;48.09;101157.12;1850601;77;21530;-62
2021/05/25 09:55:48;;;;;;;5.37;0.30;;;;;;;21.05;48.42;101158.06;1839158;76;21004;-50
2021/05/25 09:58:16;;;;;;;8.83;7.53;;;;;;;21.09;46.33;101161.33;1851939;77;20984;-53
2021/05/25 10:00:45;;;;;;;3.55;1.85;;;;;;;21.10;46.49;101167.12;1823593;77;21027;-51
2021/05/25 10:03:15;;;;;;;2.50;1.22;;;;;;;21.14;45.77;101164.47;1837267;77;21024;-51
2021/05/25 10:05:47;;;;;;;1.25;0.80;;;;;;;21.20;47.37;101158.50;1840953;75;21001;-49
2021/05/25 10:08:17;;;;;;;3.22;0.37;;;;;;;21.20;44.14;101154.94;1828859;76;20968;-53
2021/05/25 10:10:45;;;;;;;1.45;0.72;;;;;;;21.20;44.45;101144.09;1841915;75;21012;-45
2021/05/25 10:13:13;;;;;;;1.42;0.80;;;;;;;21.22;44.54;101147.02;1844306;75;20995;-46
2021/05/25 10:15:43;;;;;;;6.85;2.72;;;;;;;21.25;46.33;101150.80;1836666;76;21010;-46
2021/05/25 10:18:28;;;;;;;3.02;0.72;;;;;;;21.28;43.56;101141.01;1830016;77;20972;-44
2021/05/25 10:20:40;;;;;;;6.70;4.37;;;;;;;21.29;43.03;101141.86;1841548;76;21024;-44
2021/05/25 10:23:08;;;;;;;1.87;1.00;;;;;;;21.32;45.34;101140.23;1843340;76;21511;-42
2021/05/25 10:25:38;;;;;;;0.85;0.57;;;;;;;21.37;46.05;101140.66;1841937;76;20981;-50
2021/05/25 10:28:09;;;;;;;1.00;0.30;;;;;;;21.45;47.20;101141.33;1844970;77;21896;-52
2021/05/25 10:30:39;;;;;;;0.85;0.40;;;;;;;21.53;48.14;101129.25;1841818;76;21543;-51
2021/05/25 10:33:11;;;;;;;1.75;0.72;;;;;;;21.61;45.67;101133.44;1844115;77;20999;-46
2021/05/25 10:35:57;;;;;;;1.07;0.40;;;;;;;21.66;44.70;101116.72;1830064;76;20996;-46
2021/05/25 10:38:36;;;;;;;2.83;1.05;;;;;;;21.69;44.65;101110.99;1824710;77;20980;-46
2021/05/25 10:41:06;;;;;;;2.08;0.62;;;;;;;21.73;44.05;101097.50;1828451;77;20994;-47
2021/05/25 10:43:39;;;;;;;1.90;0.80;;;;;;;21.74;45.16;101086.48;1836634;77;20981;-46
2021/05/25 10:46:15;;;;;;;3.42;0.93;;;;;;;21.76;44.93;101082.27;1830608;77;20964;-45
2021/05/25 10:49:02;;;;;;;1.70;0.45;;;;;;;21.80;45.59;101090.48;1841886;77;21785;-47
2021/05/25 10:51:54;;;;;;;1.02;0.57;;;;;;;21.83;44.88;101082.89;1837221;76;20993;-46
2021/05/25 10:54:26;;;;;;;0.88;0.50;;;;;;;21.86;46.21;101085.80;1840777;76;21000;-46
2021/05/25 10:56:53;;;;;;;0.72;0.37;;;;;;;21.88;46.28;101090.59;1842632;77;21402;-54
2021/05/25 10:59:22;;;;;;;1.72;0.50;;;;;;;21.91;45.43;101092.15;1836229;76;21997;-47
2021/05/25 11:01:57;;;;;;;0.65;0.35;;;;;;;21.93;46.20;101095.58;1847298;76;21052;-47
2021/05/25 11:04:36;;;;;;;0.80;0.40;;;;;;;21.95;45.05;101091.71;1838657;77;21031;-52
2021/05/25 11:07:35;;;;;;;2.35;0.47;;;;;;;21.97;45.60;101079.33;1825499;77;21020;-52
2021/05/25 11:10:32;;;;;;;4.95;0.40;;;;;;;21.99;44.94;101085.47;1841069;77;20985;-51
2021/05/25 11:13:26;;;;;;;0.55;0.45;;;;;;;21.99;46.67;101084.95;1835261;77;20981;-56
2021/05/25 11:16:29;;;;;;;1.20;0.90;;;;;;;22.01;45.44;101080.23;1840205;75;20992;-50
2021/05/25 11:19:09;;;;;;;1.98;0.80;;;;;;;22.02;45.64;101073.83;1838114;76;21414;-54
2021/05/25 11:24:46;;;;;;;0.57;0.33;;;;;;;22.10;45.58;101060.85;1836539;76;20986;-55
2021/05/25 11:27:16;;;;;;;2.10;0.70;;;;;;;22.14;46.02;101061.39;1841593;75;20976;-55
2021/05/25 11:30:05;;;;;;;2.77;0.68;;;;;;;22.18;45.50;101054.16;1847468;76;21527;-55
2021/05/25 11:32:55;;;;;;;1.12;0.62;;;;;;;;;;1849126;76;21032;-55
2021/05/25 11:36:00;;;;;;;2.77;0.50;;;;;;;22.22;45.37;101054.22;1699686;81;21173;-58
2021/05/25 11:38:57;;;;;;;1.25;0.33;;;;;;;22.26;45.97;101061.58;1706713;82;21011;-55
2021/05/25 11:41:24;;;;;;;1.52;0.40;;;;;;;22.28;45.63;101056.86;1713310;82;21123;-46
2021/05/25 11:44:08;;;;;;;2.30;0.60;;;;;;;22.29;45.39;101049.55;1718285;82;21053;-50
2021/05/25 11:46:48;;;;;;;1.00;0.47;;;;;;;22.28;44.65;101050.58;1713332;82;21543;-55
2021/05/25 11:49:15;;;;;;;1.52;0.50;;;;;;;22.26;45.74;101054.78;1714259;82;21027;-55